地図

経路データ

SID SEASON NUMBER BASIN SUBBASIN NAME ISO_TIME NATURE LAT LON WMO_WIND WMO_PRES WMO_AGENCY TRACK_TYPE DIST2LAND LANDFALL IFLAG USA_AGENCY USA_ATCF_ID USA_LAT USA_LON USA_RECORD USA_STATUS USA_WIND USA_PRES USA_SSHS USA_R34_NE USA_R34_SE USA_R34_SW USA_R34_NW USA_R50_NE USA_R50_SE USA_R50_SW USA_R50_NW USA_R64_NE USA_R64_SE USA_R64_SW USA_R64_NW USA_POCI USA_ROCI USA_RMW USA_EYE TOKYO_LAT TOKYO_LON TOKYO_GRADE TOKYO_WIND TOKYO_PRES TOKYO_R50_DIR TOKYO_R50_LONG TOKYO_R50_SHORT TOKYO_R30_DIR TOKYO_R30_LONG TOKYO_R30_SHORT TOKYO_LAND CMA_LAT CMA_LON CMA_CAT CMA_WIND CMA_PRES HKO_LAT HKO_LON HKO_CAT HKO_WIND HKO_PRES NEWDELHI_LAT NEWDELHI_LON NEWDELHI_GRADE NEWDELHI_WIND NEWDELHI_PRES NEWDELHI_CI NEWDELHI_DP NEWDELHI_POCI REUNION_LAT REUNION_LON REUNION_TYPE REUNION_WIND REUNION_PRES REUNION_TNUM REUNION_CI REUNION_RMW REUNION_R34_NE REUNION_R34_SE REUNION_R34_SW REUNION_R34_NW REUNION_R50_NE REUNION_R50_SE REUNION_R50_SW REUNION_R50_NW REUNION_R64_NE REUNION_R64_SE REUNION_R64_SW REUNION_R64_NW BOM_LAT BOM_LON BOM_TYPE BOM_WIND BOM_PRES BOM_TNUM BOM_CI BOM_RMW BOM_R34_NE BOM_R34_SE BOM_R34_SW BOM_R34_NW BOM_R50_NE BOM_R50_SE BOM_R50_SW BOM_R50_NW BOM_R64_NE BOM_R64_SE BOM_R64_SW BOM_R64_NW BOM_ROCI BOM_POCI BOM_EYE BOM_POS_METHOD BOM_PRES_METHOD NADI_LAT NADI_LON NADI_CAT NADI_WIND NADI_PRES WELLINGTON_LAT WELLINGTON_LON WELLINGTON_WIND WELLINGTON_PRES DS824_LAT DS824_LON DS824_STAGE DS824_WIND DS824_PRES TD9636_LAT TD9636_LON TD9636_STAGE TD9636_WIND TD9636_PRES TD9635_LAT TD9635_LON TD9635_WIND TD9635_PRES TD9635_ROCI NEUMANN_LAT NEUMANN_LON NEUMANN_CLASS NEUMANN_WIND NEUMANN_PRES MLC_LAT MLC_LON MLC_CLASS MLC_WIND MLC_PRES USA_GUST BOM_GUST BOM_GUST_PER REUNION_GUST REUNION_GUST_PER USA_SEAHGT USA_SEARAD_NE USA_SEARAD_SE USA_SEARAD_SW USA_SEARAD_NW STORM_SPEED STORM_DIR
1924311N13280 1924 50 NA CS NOT_NAMED 1924-11-05 12:00:00 TS 12.5000 -80.0000 35 hurdat_atl main 337 337 O_____________ hurdat_atl AL111924 12.5000 -80.0000 TS 35 0 4 46
1924311N13280 1924 50 NA CS NOT_NAMED 1924-11-05 15:00:00 TS 12.6400 -79.8525 main 347 347 P_____________ AL111924 12.6400 -79.8525 TS 35 0 4 44
1924311N13280 1924 50 NA CS NOT_NAMED 1924-11-05 18:00:00 TS 12.8000 -79.7000 35 hurdat_atl main 369 369 O_____________ hurdat_atl AL111924 12.8000 -79.7000 TS 35 0 5 40
1924311N13280 1924 50 NA CS NOT_NAMED 1924-11-05 21:00:00 TS 12.9925 -79.5425 main 391 391 P_____________ AL111924 12.9925 -79.5425 TS 35 0 5 36
1924311N13280 1924 50 NA CS NOT_NAMED 1924-11-06 00:00:00 TS 13.2000 -79.4000 35 hurdat_atl main 414 414 O_____________ hurdat_atl AL111924 13.2000 -79.4000 TS 35 0 5 31
1924311N13280 1924 50 NA CS NOT_NAMED 1924-11-06 03:00:00 TS 13.4000 -79.2925 main 433 430 P_____________ AL111924 13.4000 -79.2925 TS 35 0 4 26
1924311N13280 1924 50 NA CS NOT_NAMED 1924-11-06 06:00:00 TS 13.6000 -79.2000 35 hurdat_atl main 438 436 O_____________ hurdat_atl AL111924 13.6000 -79.2000 TS 35 0 4 26
1924311N13280 1924 50 NA CS NOT_NAMED 1924-11-06 09:00:00 TS 13.7925 -79.0925 main 446 444 P_____________ AL111924 13.7925 -79.0925 TS 35 0 4 26
1924311N13280 1924 50 NA CS NOT_NAMED 1924-11-06 12:00:00 TS 14.0000 -79.0000 35 hurdat_atl main 454 431 O_____________ hurdat_atl AL111924 14.0000 -79.0000 TS 35 0 5 19
1924311N13280 1924 50 NA CS NOT_NAMED 1924-11-06 15:00:00 TS 14.2425 -78.9350 main 431 401 P_____________ AL111924 14.2425 -78.9350 TS 35 0 5 11
1924311N13280 1924 50 NA CS NOT_NAMED 1924-11-06 18:00:00 TS 14.5000 -78.9000 35 hurdat_atl main 401 380 O_____________ hurdat_atl AL111924 14.5000 -78.9000 TS 35 0 5 5
1924311N13280 1924 50 NA CS NOT_NAMED 1924-11-06 21:00:00 TS 14.7500 -78.8999 main 369 348 P_____________ AL111924 14.7500 -78.8999 TS 35 0 5 2
1924311N13280 1924 50 NA CS NOT_NAMED 1924-11-07 00:00:00 TS 15.0000 -78.9000 35 hurdat_atl main 348 328 O_____________ hurdat_atl AL111924 15.0000 -78.9000 TS 35 0 5 2
1924311N13280 1924 50 NA CS NOT_NAMED 1924-11-07 03:00:00 TS 15.2500 -78.8725 main 328 293 P_____________ AL111924 15.2500 -78.8725 TS 35 0 5 11
1924311N13280 1924 50 NA CS NOT_NAMED 1924-11-07 06:00:00 TS 15.5000 -78.8000 35 hurdat_atl main 293 268 O_____________ hurdat_atl AL111924 15.5000 -78.8000 TS 35 0 5 21
1924311N13280 1924 50 NA CS NOT_NAMED 1924-11-07 09:00:00 TS 15.7425 -78.6799 main 268 229 P_____________ AL111924 15.7425 -78.6799 TS 35 0 6 30
1924311N13280 1924 50 NA CS NOT_NAMED 1924-11-07 12:00:00 TS 16.0000 -78.5000 35 hurdat_atl main 229 190 O_____________ hurdat_atl AL111924 16.0000 -78.5000 TS 35 0 7 36
1924311N13280 1924 50 NA CS NOT_NAMED 1924-11-07 15:00:00 TS 16.2775 -78.2799 main 190 148 P_____________ AL111924 16.2775 -78.2799 TS 35 0 8 39
1924311N13280 1924 50 NA CS NOT_NAMED 1924-11-07 18:00:00 TS 16.6000 -78.0000 35 hurdat_atl main 148 94 O_____________ hurdat_atl AL111924 16.6000 -78.0000 TS 35 0 9 40
1924311N13280 1924 50 NA CS NOT_NAMED 1924-11-07 21:00:00 TS 16.9851 -77.6501 main 94 35 P_____________ AL111924 16.9851 -77.6501 TS 35 0 10 40
1924311N13280 1924 50 NA CS NOT_NAMED 1924-11-08 00:00:00 TS 17.4000 -77.3000 35 hurdat_atl main 35 0 O_____________ hurdat_atl AL111924 17.4000 -77.3000 TS 35 0 10 36
1924311N13280 1924 50 NA CS NOT_NAMED 1924-11-08 03:00:00 TS 17.8074 -77.0199 main 0 0 P_____________ AL111924 17.8074 -77.0199 TS 37 0 9 31
1924311N13280 1924 50 NA CS NOT_NAMED 1924-11-08 06:00:00 TS 18.2000 -76.8000 40 hurdat_atl main 0 0 O_____________ hurdat_atl AL111924 18.2000 -76.8000 TS 40 0 8 26
1924311N13280 1924 50 NA CS NOT_NAMED 1924-11-08 09:00:00 TS 18.5575 -76.6274 main 38 38 P_____________ AL111924 18.5575 -76.6274 TS 40 0 8 22
1924311N13280 1924 50 NA CS NOT_NAMED 1924-11-08 12:00:00 TS 18.9000 -76.5000 40 hurdat_atl main 70 70 O_____________ hurdat_atl AL111924 18.9000 -76.5000 TS 40 0 7 18
1924311N13280 1924 50 NA CS NOT_NAMED 1924-11-08 15:00:00 TS 19.2575 -76.3850 main 78 44 P_____________ AL111924 19.2575 -76.3850 TS 40 0 7 15
1924311N13280 1924 50 NA CS NOT_NAMED 1924-11-08 18:00:00 TS 19.6000 -76.3000 40 hurdat_atl main 44 11 O_____________ hurdat_atl AL111924 19.6000 -76.3000 TS 40 0 7 12
1924311N13280 1924 50 NA CS NOT_NAMED 1924-11-08 21:00:00 TS 19.9225 -76.2424 main 11 0 P_____________ AL111924 19.9225 -76.2424 TS 40 0 6 9
1924311N13280 1924 50 NA NA NOT_NAMED 1924-11-09 00:00:00 TS 20.2000 -76.2000 40 hurdat_atl main 0 0 O_____________ hurdat_atl AL111924 20.2000 -76.2000 TS 40 0 5 10
1924311N13280 1924 50 NA NA NOT_NAMED 1924-11-09 03:00:00 TS 20.4150 -76.1500 main 0 0 P_____________ AL111924 20.4150 -76.1500 TS 37 0 4 13
1924311N13280 1924 50 NA NA NOT_NAMED 1924-11-09 06:00:00 TS 20.6000 -76.1000 35 hurdat_atl main 0 0 O_____________ hurdat_atl AL111924 20.6000 -76.1000 TS 35 0 4 13
1924311N13280 1924 50 NA NA NOT_NAMED 1924-11-09 09:00:00 TS 20.8075 -76.0425 main 0 0 P_____________ AL111924 20.8075 -76.0425 TS 35 0 4 13
1924311N13280 1924 50 NA NA NOT_NAMED 1924-11-09 12:00:00 TS 21.0000 -76.0000 35 hurdat_atl main 0 0 O_____________ hurdat_atl AL111924 21.0000 -76.0000 TS 35 0 4 6
1924311N13280 1924 50 NA NA NOT_NAMED 1924-11-09 15:00:00 TS 21.1575 -75.9999 main 11 11 P_____________ AL111924 21.1575 -75.9999 TS 37 0 3 0
1924311N13280 1924 50 NA NA NOT_NAMED 1924-11-09 18:00:00 TS 21.3000 -76.0000 40 hurdat_atl main 22 22 O_____________ hurdat_atl AL111924 21.3000 -76.0000 TS 40 0 3 5
1924311N13280 1924 50 NA NA NOT_NAMED 1924-11-09 21:00:00 TS 21.4575 -75.9575 main 39 39 P_____________ AL111924 21.4575 -75.9575 TS 45 0 3 17
1924311N13280 1924 50 NA NA NOT_NAMED 1924-11-10 00:00:00 TS 21.6000 -75.9000 50 hurdat_atl main 54 54 O_____________ hurdat_atl AL111924 21.6000 -75.9000 TS 50 0 3 21
1924311N13280 1924 50 NA NA NOT_NAMED 1924-11-10 03:00:00 TS 21.7000 -75.8649 main 63 63 P_____________ AL111924 21.7000 -75.8649 TS 55 0 2 27
1924311N13280 1924 50 NA NA NOT_NAMED 1924-11-10 06:00:00 TS 21.8000 -75.8000 60 hurdat_atl main 78 78 O_____________ hurdat_atl AL111924 21.8000 -75.8000 TS 60 0 3 34
1924311N13280 1924 50 NA NA NOT_NAMED 1924-11-10 09:00:00 TS 21.9274 -75.7023 main 93 93 P_____________ AL111924 21.9274 -75.7023 TS 62 0 4 43
1924311N13280 1924 50 NA NA NOT_NAMED 1924-11-10 12:00:00 TS 22.1000 -75.5000 65 hurdat_atl main 123 123 O_____________ hurdat_atl AL111924 22.1000 -75.5000 HU 65 1 6 51
1924311N13280 1924 50 NA NA NOT_NAMED 1924-11-10 15:00:00 TS 22.3121 -75.1895 main 151 151 P_____________ AL111924 22.3121 -75.1895 HU 67 1 9 56
1924311N13280 1924 50 NA NA NOT_NAMED 1924-11-10 18:00:00 TS 22.6000 -74.7000 70 hurdat_atl main 196 191 O_____________ hurdat_atl AL111924 22.6000 -74.7000 HU 70 1 13 58
1924311N13280 1924 50 NA NA NOT_NAMED 1924-11-10 21:00:00 TS 22.9697 -74.0397 main 214 213 P_____________ AL111924 22.9697 -74.0397 HU 70 1 16 60
1924311N13280 1924 50 NA NA NOT_NAMED 1924-11-11 00:00:00 TS 23.4000 -73.2000 70 hurdat_atl main 245 245 O_____________ hurdat_atl AL111924 23.4000 -73.2000 HU 70 1 19 62
1924311N13280 1924 50 NA NA NOT_NAMED 1924-11-11 03:00:00 TS 23.8429 -72.2150 main 302 302 P_____________ AL111924 23.8429 -72.2150 HU 70 1 20 64
1924311N13280 1924 50 NA NA NOT_NAMED 1924-11-11 06:00:00 TS 24.3000 -71.2000 70 hurdat_atl main 392 392 O_____________ hurdat_atl AL111924 24.3000 -71.2000 HU 70 1 20 62
1924311N13280 1924 50 NA NA NOT_NAMED 1924-11-11 09:00:00 TS 24.7718 -70.3123 main 488 488 P_____________ AL111924 24.7718 -70.3123 HU 70 1 18 60
1924311N13280 1924 50 NA NA NOT_NAMED 1924-11-11 12:00:00 TS 25.2000 -69.5000 70 hurdat_atl main 572 572 O_____________ hurdat_atl AL111924 25.2000 -69.5000 HU 70 1 16 62
1924311N13280 1924 50 NA NA NOT_NAMED 1924-11-11 15:00:00 TS 25.5369 -68.7344 main 650 650 P_____________ AL111924 25.5369 -68.7344 HU 70 1 15 66
1924311N13280 1924 50 NA NA NOT_NAMED 1924-11-11 18:00:00 TS 25.8000 -68.0000 70 hurdat_atl main 721 721 O_____________ hurdat_atl AL111924 25.8000 -68.0000 HU 70 1 15 71
1924311N13280 1924 50 NA NA NOT_NAMED 1924-11-11 21:00:00 TS 26.0228 -67.1974 main 770 770 P_____________ AL111924 26.0228 -67.1974 HU 70 1 14 73
1924311N13280 1924 50 NA NA NOT_NAMED 1924-11-12 00:00:00 TS 26.2000 -66.5000 70 hurdat_atl main 820 820 O_____________ hurdat_atl AL111924 26.2000 -66.5000 HU 70 1 11 73
1924311N13280 1924 50 NA NA NOT_NAMED 1924-11-12 03:00:00 TS 26.3419 -66.0320 main 852 852 P_____________ AL111924 26.3419 -66.0320 HU 70 1 8 67
1924311N13280 1924 50 NA NA NOT_NAMED 1924-11-12 06:00:00 TS 26.5000 -65.7000 70 hurdat_atl main 885 885 O_____________ hurdat_atl AL111924 26.5000 -65.7000 HU 70 1 7 57
1924311N13280 1924 50 NA NA NOT_NAMED 1924-11-12 09:00:00 TS 26.7198 -65.3848 main 918 918 P_____________ AL111924 26.7198 -65.3848 HU 70 1 7 47
1924311N13280 1924 50 NA NA NOT_NAMED 1924-11-12 12:00:00 TS 27.0000 -65.1000 70 hurdat_atl main 961 961 O_____________ hurdat_atl AL111924 27.0000 -65.1000 HU 70 1 8 40
1924311N13280 1924 50 NA NA NOT_NAMED 1924-11-12 15:00:00 TS 27.3198 -64.8146 main 998 998 P_____________ AL111924 27.3198 -64.8146 HU 70 1 9 37
1924311N13280 1924 50 NA NA NOT_NAMED 1924-11-12 18:00:00 TS 27.7000 -64.5000 70 hurdat_atl main 1045 1045 O_____________ hurdat_atl AL111924 27.7000 -64.5000 HU 70 1 10 36
1924311N13280 1924 50 NA NA NOT_NAMED 1924-11-12 21:00:00 TS 28.1347 -64.1446 main 1094 1094 P_____________ AL111924 28.1347 -64.1446 HU 67 1 11 38
1924311N13280 1924 50 NA NA NOT_NAMED 1924-11-13 00:00:00 TS 28.6000 -63.7000 65 hurdat_atl main 1156 1156 O_____________ hurdat_atl AL111924 28.6000 -63.7000 HU 65 1 13 45
1924311N13280 1924 50 NA NA NOT_NAMED 1924-11-13 03:00:00 TS 29.0428 -63.1149 main 1211 1211 P_____________ AL111924 29.0428 -63.1149 HU 65 1 14 49
1924311N13280 1924 50 NA NA NOT_NAMED 1924-11-13 06:00:00 TS 29.5000 -62.5000 65 hurdat_atl main 1279 1279 O_____________ hurdat_atl AL111924 29.5000 -62.5000 HU 65 1 14 47
1924311N13280 1924 50 NA NA NOT_NAMED 1924-11-13 09:00:00 TS 29.9925 -61.9401 main 1349 1349 P_____________ AL111924 29.9925 -61.9401 HU 62 0 13 41
1924311N13280 1924 50 NA NA NOT_NAMED 1924-11-13 12:00:00 TS 30.5000 -61.5000 60 hurdat_atl main 1413 1413 O_____________ hurdat_atl AL111924 30.5000 -61.5000 TS 60 0 12 31
1924311N13280 1924 50 NA NA NOT_NAMED 1924-11-13 15:00:00 TS 30.9922 -61.2319 main 1426 1383 P_____________ AL111924 30.9922 -61.2319 TS 57 0 11 19
1924311N13280 1924 50 NA NA NOT_NAMED 1924-11-13 18:00:00 TS 31.5000 -61.1000 55 hurdat_atl main 1383 1334 O_____________ hurdat_atl AL111924 31.5000 -61.1000 TS 55 0 11 10
1924311N13280 1924 50 NA NA NOT_NAMED 1924-11-13 21:00:00 TS 32.0349 -61.0197 main 1334 1270 P_____________ AL111924 32.0349 -61.0197 TS 52 0 11 5
1924311N13280 1924 50 NA NA NOT_NAMED 1924-11-14 00:00:00 TS 32.6000 -61.0000 50 hurdat_atl main 1270 1205 O_____________ hurdat_atl AL111924 32.6000 -61.0000 TS 50 0 12 0
1924311N13280 1924 50 NA NA NOT_NAMED 1924-11-14 03:00:00 TS 33.1925 -60.9924 main 1205 1141 P_____________ AL111924 33.1925 -60.9924 TS 47 0 12 1
1924311N13280 1924 50 NA NA NOT_NAMED 1924-11-14 06:00:00 TS 33.8000 -61.0000 45 hurdat_atl main 1141 1088 O_____________ hurdat_atl AL111924 33.8000 -61.0000 TS 45 0 12 0
1924311N13280 1924 50 NA NA NOT_NAMED 1924-11-14 09:00:00 TS 34.3775 -61.0000 main 1078 1015 P_____________ AL111924 34.3775 -61.0000 TS 42 0 12 1
1924311N13280 1924 50 NA NA NOT_NAMED 1924-11-14 12:00:00 TS 35.0000 -61.0000 40 hurdat_atl main 1015 942 O_____________ hurdat_atl AL111924 35.0000 -61.0000 TS 40 0 13 0
1924311N13280 1924 50 NA NA NOT_NAMED 1924-11-14 15:00:00 TS 35.7200 -61.0000 main 942 860 P_____________ AL111924 35.7200 -61.0000 TS 40 0 15 0
1924311N13280 1924 50 NA NA NOT_NAMED 1924-11-14 18:00:00 ET 36.5000 -61.0000 40 hurdat_atl main 860 O_____________ hurdat_atl AL111924 36.5000 -61.0000 EX 40 -4 16 2

IBTrACS Databaseについて

本データベースは、米国NOAAが公開する1842年以降の世界の熱帯低気圧のベストトラックデータアーカイブInternational Best Track Archive for Climate Stewardship (IBTrACS)を、ウェブで閲覧しやすい形式に変換したものです。

最終更新日:2021-10-27